Msxt Trinity — 3ENF5 — position and weather

sailwx.info

Track history (hours):
 
Tides and Currents Weather Stations Pressure Air Temp Water Temp Dewpoint Dewpoint Depression Visibility Wind Speed Wind Dir Waves Ship Positions

Msxt Trinity

Last reported at 2018-Apr-18 03:23 UTC. Time now 2018-Apr-22 03:00 UTC.
Position N 36°14' E 014°59'.

Length 292 m; draft 14.4 m.

Type: Cargo ship. MMSI: 357765000.

Date/timePositionNaut miles runAvg speedWind from/ knotsBaromVisibWave heightAir tempDewpointWater temp
2018-Apr-18 03:23N 36°14' E 014°59'611.9
2018-Apr-18 02:51N 36°16' E 014°51'413.1
2018-Apr-18 02:30N 36°17' E 014°46'610.8
2018-Apr-18 01:59N 36°19' E 014°39'612.2
2018-Apr-18 01:31N 36°21' E 014°33'510.7
2018-Apr-18 01:00N 36°22' E 014°26'612.3
2018-Apr-18 00:30N 36°24' E 014°19'510.3
2018-Apr-18 00:00N 36°26' E 014°13'611.4
2018-Apr-17 23:30N 36°28' E 014°06'611.6
2018-Apr-17 23:00N 36°30' E 013°59'611.7
2018-Apr-17 22:30N 36°32' E 013°52'611.9
2018-Apr-17 21:59N 36°33' E 013°45'611.8
2018-Apr-17 21:30N 36°35' E 013°38'712.2
2018-Apr-17 20:58N 36°37' E 013°30'511.4
2018-Apr-17 20:30N 36°38' E 013°24'511.0
2018-Apr-17 20:00N 36°40' E 013°17'611.3
2018-Apr-17 19:30N 36°42' E 013°11'611.4
2018-Apr-17 18:59N 36°44' E 013°04'611.5
2018-Apr-17 18:30N 36°45' E 012°57'611.8
2018-Apr-17 18:00N 36°47' E 012°50'611.7
2018-Apr-17 17:29N 36°49' E 012°43'611.5
2018-Apr-17 17:00N 36°51' E 012°36'611.8
2018-Apr-17 16:30N 36°53' E 012°30'611.8
2018-Apr-17 16:00N 36°54' E 012°22'812.0
2018-Apr-17 15:18N 36°57' E 012°13'44511.7
2018-Apr-16 01:27N 37°14' E 002°55'812.0
2018-Apr-16 00:48N 37°12' E 002°46'1212.0
2018-Apr-15 23:48N 37°11' E 002°31'412.0
2018-Apr-15 23:30N 37°10' E 002°26'612.0
2018-Apr-15 23:00N 37°09' E 002°19'611.9
2018-Apr-15 22:30N 37°08' E 002°12'2511.7
2018-Apr-15 20:22N 37°04' E 001°41'1111.6
2018-Apr-15 19:26N 37°01' E 001°28'711.7
2018-Apr-15 18:51N 36°59' E 001°20'411.8
2018-Apr-15 18:29N 36°58' E 001°15'612.1
2018-Apr-15 17:59N 36°57' E 001°07'612.2
2018-Apr-15 17:30N 36°56' E 000°60'612.2
2018-Apr-15 17:00N 36°54' E 000°52'612.4
2018-Apr-15 16:30N 36°53' E 000°45'1012.3
2018-Apr-15 15:44N 36°51' E 000°33'611.9
2018-Apr-15 15:15N 36°50' E 000°26'311.5
2018-Apr-15 15:00N 36°49' E 000°23'711.4
2018-Apr-15 14:21N 36°48' E 000°14'411.5
2018-Apr-15 14:00N 36°48' E 000°09'611.4
2018-Apr-15 13:30N 36°47' E 000°02'3111.3
2018-Apr-15 10:45N 36°38' W 000°36'411.7
2018-Apr-15 10:25N 36°38' W 000°41'511.9
2018-Apr-15 10:00N 36°37' W 000°47'19812.1
2018-Apr-14 17:36N 36°03' W 004°49'113.0
2018-Apr-14 17:30N 36°02' W 004°51'1712.7
2018-Apr-14 16:10N 36°04' W 005°11'213.2
2018-Apr-14 16:00N 36°05' W 005°14'510.6
2018-Apr-14 15:30N 36°05' W 005°20'3 7.0
2018-Apr-14 15:00N 36°08' W 005°23'0 0.6
2018-Apr-14 14:28N 36°08' W 005°23'0 0.0
2018-Apr-14 13:55N 36°08' W 005°23'0 0.1
2018-Apr-14 13:28N 36°08' W 005°23'0 0.0
2018-Apr-14 12:19N 36°08' W 005°23'0 0.1
2018-Apr-14 11:58N 36°08' W 005°23'0 0.2
2018-Apr-14 11:28N 36°08' W 005°23'0 0.0
2018-Apr-14 05:59N 36°08' W 005°23'0 0.0
2018-Apr-14 05:29N 36°08' W 005°23'0 0.1
2018-Apr-14 05:00N 36°08' W 005°23'0 0.0
2018-Apr-14 04:30N 36°08' W 005°23'0 0.1
2018-Apr-14 03:59N 36°08' W 005°23'0 0.2
2018-Apr-14 03:30N 36°08' W 005°23'0 0.1
2018-Apr-14 03:00N 36°08' W 005°23'0 0.2
2018-Apr-14 02:30N 36°08' W 005°23'0 0.1
2018-Apr-14 02:00N 36°08' W 005°23'0 0.1
2018-Apr-14 01:31N 36°08' W 005°23'0 0.0
2018-Apr-14 01:00N 36°08' W 005°23'0 0.0
2018-Apr-14 00:30N 36°08' W 005°23'0 0.2
2018-Apr-14 00:00N 36°08' W 005°23'0 0.3
2018-Apr-13 23:30N 36°08' W 005°23'0 0.0
2018-Apr-13 21:12N 36°08' W 005°23'0 0.1
2018-Apr-13 21:00N 36°08' W 005°23'0 0.1
2018-Apr-13 19:48N 36°07' W 005°23'1 3.2
2018-Apr-13 19:30N 36°07' W 005°22'2 3.7
2018-Apr-13 19:00N 36°05' W 005°21'1 2.9
2018-Apr-13 18:30N 36°04' W 005°20'3 5.6
2018-Apr-13 18:01N 36°04' W 005°16'3 6.5
2018-Apr-13 17:30N 36°05' W 005°12'6 0.6
2018-Apr-13 07:06N 35°59' W 005°13'1 8.7
2018-Apr-13 07:01N 35°59' W 005°14'5 9.2
2018-Apr-13 06:30N 35°58' W 005°20'5 9.5
2018-Apr-13 06:00N 35°58' W 005°26'4 7.9
2018-Apr-13 05:30N 35°57' W 005°30'  
2018-Apr-10 04:20N 36°02' W 021°52'8810.8
2018-Apr-09 20:09N 36°04' W 023°42'211.0
2018-Apr-09 20:00N 36°04' W 023°44'511.1
2018-Apr-09 19:30N 36°04' W 023°51'611.4
2018-Apr-09 19:00N 36°04' W 023°57'611.4
2018-Apr-09 18:30N 36°04' W 024°05'611.5
2018-Apr-09 18:00N 36°04' W 024°12'611.9
2018-Apr-09 17:30N 36°04' W 024°19'612.0
2018-Apr-09 17:00N 36°04' W 024°27'611.8
2018-Apr-09 16:30N 36°04' W 024°34'611.7
2018-Apr-09 16:00N 36°04' W 024°41'611.7
2018-Apr-09 15:31N 36°04' W 024°48'612.0
2018-Apr-09 15:00N 36°05' W 024°56'612.2
2018-Apr-09 14:30N 36°05' W 025°03'611.8
2018-Apr-09 14:01N 36°04' W 025°11'611.9
2018-Apr-09 13:30N 36°04' W 025°18'612.1
2018-Apr-09 13:00N 36°04' W 025°25'612.4
2018-Apr-09 12:30N 36°05' W 025°33'612.4
2018-Apr-09 12:01N 36°05' W 025°41'612.3
2018-Apr-09 11:31N 36°05' W 025°48'612.1
2018-Apr-09 11:00N 36°05' W 025°56'612.2
2018-Apr-09 10:30N 36°05' W 026°03'612.3
2018-Apr-09 10:00N 36°05' W 026°11'713.4
2018-Apr-09 09:30N 36°05' W 026°19'713.4
2018-Apr-09 09:00N 36°05' W 026°28'712.8
2018-Apr-09 08:28N 36°05' W 026°36'612.3
2018-Apr-09 07:57N 36°05' W 026°44'512.0
2018-Apr-09 07:30N 36°05' W 026°51'611.4
2018-Apr-09 07:01N 36°05' W 026°58'611.4
2018-Apr-09 06:30N 36°06' W 027°05'611.1
2018-Apr-09 06:00N 36°06' W 027°11'510.9
2018-Apr-09 05:30N 36°06' W 027°18'511.0
2018-Apr-09 05:00N 36°06' W 027°25'611.1
2018-Apr-09 04:30N 36°06' W 027°32'510.9
2018-Apr-09 04:00N 36°06' W 027°39'611.0
2018-Apr-09 03:26N 36°06' W 027°46'511.1
2018-Apr-09 03:00N 36°06' W 027°52'511.0
2018-Apr-09 02:30N 36°06' W 027°59'611.3
2018-Apr-09 02:00N 36°06' W 028°06'611.1
2018-Apr-09 01:30N 36°05' W 028°13'510.5
2018-Apr-09 01:00N 36°03' W 028°19'611.7
2018-Apr-09 00:30N 36°06' W 028°26'611.5
2018-Apr-09 00:00N 36°07' W 028°33'611.5
2018-Apr-08 23:30N 36°07' W 028°40'711.3
2018-Apr-08 22:55N 36°06' W 028°48'911.4
2018-Apr-08 22:08N 36°06' W 028°59'211.7
2018-Apr-08 21:58N 36°06' W 029°01'611.7
2018-Apr-08 21:28N 36°06' W 029°09'611.4
2018-Apr-08 20:59N 36°07' W 029°16'511.4
2018-Apr-08 20:30N 36°07' W 029°22'611.4
2018-Apr-08 20:00N 36°07' W 029°29'711.6
2018-Apr-08 19:21N 36°07' W 029°39'811.4
2018-Apr-08 18:40N 36°07' W 029°48'311.3
2018-Apr-08 18:26N 36°07' W 029°52'511.1
2018-Apr-08 18:00N 36°07' W 029°58'610.8
2018-Apr-08 17:27N 36°07' W 030°05'1210.9
2018-Apr-08 16:19N 36°07' W 030°20'2811.0
2018-Apr-08 13:48N 36°08' W 030°54'310.7
2018-Apr-08 13:31N 36°08' W 030°58'  
Track history (hours):
 
Tides and Currents Weather Stations Pressure Air Temp Water Temp Dewpoint Dewpoint Depression Visibility Wind Speed Wind Dir Waves Ship Positions

Msxt Trinity

Last reported at 2018-Apr-18 03:23 UTC. Time now 2018-Apr-22 03:00 UTC.
Position N 36°14' E 014°59'.

Length 292 m; draft 14.4 m.

Type: Cargo ship. MMSI: 357765000.

Date/timePositionNaut miles runAvg speedWind from/ knotsBaromVisibWave heightAir tempDewpointWater temp
2018-Apr-18 03:23N 36°14' E 014°59'611.9
2018-Apr-18 02:51N 36°16' E 014°51'413.1
2018-Apr-18 02:30N 36°17' E 014°46'610.8
2018-Apr-18 01:59N 36°19' E 014°39'612.2
2018-Apr-18 01:31N 36°21' E 014°33'510.7
2018-Apr-18 01:00N 36°22' E 014°26'612.3
2018-Apr-18 00:30N 36°24' E 014°19'510.3
2018-Apr-18 00:00N 36°26' E 014°13'611.4
2018-Apr-17 23:30N 36°28' E 014°06'611.6
2018-Apr-17 23:00N 36°30' E 013°59'611.7
2018-Apr-17 22:30N 36°32' E 013°52'611.9
2018-Apr-17 21:59N 36°33' E 013°45'611.8
2018-Apr-17 21:30N 36°35' E 013°38'712.2
2018-Apr-17 20:58N 36°37' E 013°30'511.4
2018-Apr-17 20:30N 36°38' E 013°24'511.0
2018-Apr-17 20:00N 36°40' E 013°17'611.3
2018-Apr-17 19:30N 36°42' E 013°11'611.4
2018-Apr-17 18:59N 36°44' E 013°04'611.5
2018-Apr-17 18:30N 36°45' E 012°57'611.8
2018-Apr-17 18:00N 36°47' E 012°50'611.7
2018-Apr-17 17:29N 36°49' E 012°43'611.5
2018-Apr-17 17:00N 36°51' E 012°36'611.8
2018-Apr-17 16:30N 36°53' E 012°30'611.8
2018-Apr-17 16:00N 36°54' E 012°22'812.0
2018-Apr-17 15:18N 36°57' E 012°13'44511.7
2018-Apr-16 01:27N 37°14' E 002°55'812.0
2018-Apr-16 00:48N 37°12' E 002°46'1212.0
2018-Apr-15 23:48N 37°11' E 002°31'412.0
2018-Apr-15 23:30N 37°10' E 002°26'612.0
2018-Apr-15 23:00N 37°09' E 002°19'611.9
2018-Apr-15 22:30N 37°08' E 002°12'2511.7
2018-Apr-15 20:22N 37°04' E 001°41'1111.6
2018-Apr-15 19:26N 37°01' E 001°28'711.7
2018-Apr-15 18:51N 36°59' E 001°20'411.8
2018-Apr-15 18:29N 36°58' E 001°15'612.1
2018-Apr-15 17:59N 36°57' E 001°07'612.2
2018-Apr-15 17:30N 36°56' E 000°60'612.2
2018-Apr-15 17:00N 36°54' E 000°52'612.4
2018-Apr-15 16:30N 36°53' E 000°45'1012.3
2018-Apr-15 15:44N 36°51' E 000°33'611.9
2018-Apr-15 15:15N 36°50' E 000°26'311.5
2018-Apr-15 15:00N 36°49' E 000°23'711.4
2018-Apr-15 14:21N 36°48' E 000°14'411.5
2018-Apr-15 14:00N 36°48' E 000°09'611.4
2018-Apr-15 13:30N 36°47' E 000°02'3111.3
2018-Apr-15 10:45N 36°38' W 000°36'411.7
2018-Apr-15 10:25N 36°38' W 000°41'511.9
2018-Apr-15 10:00N 36°37' W 000°47'19812.1
2018-Apr-14 17:36N 36°03' W 004°49'113.0
2018-Apr-14 17:30N 36°02' W 004°51'1712.7
2018-Apr-14 16:10N 36°04' W 005°11'213.2
2018-Apr-14 16:00N 36°05' W 005°14'510.6
2018-Apr-14 15:30N 36°05' W 005°20'3 7.0
2018-Apr-14 15:00N 36°08' W 005°23'0 0.6
2018-Apr-14 14:28N 36°08' W 005°23'0 0.0
2018-Apr-14 13:55N 36°08' W 005°23'0 0.1
2018-Apr-14 13:28N 36°08' W 005°23'0 0.0
2018-Apr-14 12:19N 36°08' W 005°23'0 0.1
2018-Apr-14 11:58N 36°08' W 005°23'0 0.2
2018-Apr-14 11:28N 36°08' W 005°23'0 0.0
2018-Apr-14 05:59N 36°08' W 005°23'0 0.0
2018-Apr-14 05:29N 36°08' W 005°23'0 0.1
2018-Apr-14 05:00N 36°08' W 005°23'0 0.0
2018-Apr-14 04:30N 36°08' W 005°23'0 0.1
2018-Apr-14 03:59N 36°08' W 005°23'0 0.2
2018-Apr-14 03:30N 36°08' W 005°23'0 0.1
2018-Apr-14 03:00N 36°08' W 005°23'0 0.2
2018-Apr-14 02:30N 36°08' W 005°23'0 0.1
2018-Apr-14 02:00N 36°08' W 005°23'0 0.1
2018-Apr-14 01:31N 36°08' W 005°23'0 0.0
2018-Apr-14 01:00N 36°08' W 005°23'0 0.0
2018-Apr-14 00:30N 36°08' W 005°23'0 0.2
2018-Apr-14 00:00N 36°08' W 005°23'0 0.3
2018-Apr-13 23:30N 36°08' W 005°23'0 0.0
2018-Apr-13 21:12N 36°08' W 005°23'0 0.1
2018-Apr-13 21:00N 36°08' W 005°23'0 0.1
2018-Apr-13 19:48N 36°07' W 005°23'1 3.2
2018-Apr-13 19:30N 36°07' W 005°22'2 3.7
2018-Apr-13 19:00N 36°05' W 005°21'1 2.9
2018-Apr-13 18:30N 36°04' W 005°20'3 5.6
2018-Apr-13 18:01N 36°04' W 005°16'3 6.5
2018-Apr-13 17:30N 36°05' W 005°12'6 0.6
2018-Apr-13 07:06N 35°59' W 005°13'1 8.7
2018-Apr-13 07:01N 35°59' W 005°14'5 9.2
2018-Apr-13 06:30N 35°58' W 005°20'5 9.5
2018-Apr-13 06:00N 35°58' W 005°26'4 7.9
2018-Apr-13 05:30N 35°57' W 005°30'  
2018-Apr-10 04:20N 36°02' W 021°52'8810.8
2018-Apr-09 20:09N 36°04' W 023°42'211.0
2018-Apr-09 20:00N 36°04' W 023°44'511.1
2018-Apr-09 19:30N 36°04' W 023°51'611.4
2018-Apr-09 19:00N 36°04' W 023°57'611.4
2018-Apr-09 18:30N 36°04' W 024°05'611.5
2018-Apr-09 18:00N 36°04' W 024°12'611.9
2018-Apr-09 17:30N 36°04' W 024°19'612.0
2018-Apr-09 17:00N 36°04' W 024°27'611.8
2018-Apr-09 16:30N 36°04' W 024°34'611.7
2018-Apr-09 16:00N 36°04' W 024°41'611.7
2018-Apr-09 15:31N 36°04' W 024°48'612.0
2018-Apr-09 15:00N 36°05' W 024°56'612.2
2018-Apr-09 14:30N 36°05' W 025°03'611.8
2018-Apr-09 14:01N 36°04' W 025°11'611.9
2018-Apr-09 13:30N 36°04' W 025°18'612.1
2018-Apr-09 13:00N 36°04' W 025°25'612.4
2018-Apr-09 12:30N 36°05' W 025°33'612.4
2018-Apr-09 12:01N 36°05' W 025°41'612.3
2018-Apr-09 11:31N 36°05' W 025°48'612.1
2018-Apr-09 11:00N 36°05' W 025°56'612.2
2018-Apr-09 10:30N 36°05' W 026°03'612.3
2018-Apr-09 10:00N 36°05' W 026°11'713.4
2018-Apr-09 09:30N 36°05' W 026°19'713.4
2018-Apr-09 09:00N 36°05' W 026°28'712.8
2018-Apr-09 08:28N 36°05' W 026°36'612.3
2018-Apr-09 07:57N 36°05' W 026°44'512.0
2018-Apr-09 07:30N 36°05' W 026°51'611.4
2018-Apr-09 07:01N 36°05' W 026°58'611.4
2018-Apr-09 06:30N 36°06' W 027°05'611.1
2018-Apr-09 06:00N 36°06' W 027°11'510.9
2018-Apr-09 05:30N 36°06' W 027°18'511.0
2018-Apr-09 05:00N 36°06' W 027°25'611.1
2018-Apr-09 04:30N 36°06' W 027°32'510.9
2018-Apr-09 04:00N 36°06' W 027°39'611.0
2018-Apr-09 03:26N 36°06' W 027°46'511.1
2018-Apr-09 03:00N 36°06' W 027°52'511.0
2018-Apr-09 02:30N 36°06' W 027°59'611.3
2018-Apr-09 02:00N 36°06' W 028°06'611.1
2018-Apr-09 01:30N 36°05' W 028°13'510.5
2018-Apr-09 01:00N 36°03' W 028°19'611.7
2018-Apr-09 00:30N 36°06' W 028°26'611.5
2018-Apr-09 00:00N 36°07' W 028°33'611.5
2018-Apr-08 23:30N 36°07' W 028°40'711.3
2018-Apr-08 22:55N 36°06' W 028°48'911.4
2018-Apr-08 22:08N 36°06' W 028°59'211.7
2018-Apr-08 21:58N 36°06' W 029°01'611.7
2018-Apr-08 21:28N 36°06' W 029°09'611.4
2018-Apr-08 20:59N 36°07' W 029°16'511.4
2018-Apr-08 20:30N 36°07' W 029°22'611.4
2018-Apr-08 20:00N 36°07' W 029°29'711.6
2018-Apr-08 19:21N 36°07' W 029°39'811.4
2018-Apr-08 18:40N 36°07' W 029°48'311.3
2018-Apr-08 18:26N 36°07' W 029°52'511.1
2018-Apr-08 18:00N 36°07' W 029°58'610.8
2018-Apr-08 17:27N 36°07' W 030°05'1210.9
2018-Apr-08 16:19N 36°07' W 030°20'2811.0
2018-Apr-08 13:48N 36°08' W 030°54'310.7
2018-Apr-08 13:31N 36°08' W 030°58'  

Dump ship's entire track history